Time;durP1;ratioP1;P1;durP2;ratioP2;P2;SDS_P1;SDS_P2;PMS_P1;PMS_P2;Temp;Humidity;BMP_temperature;BMP_pressure;BME280_temperature;BME280_humidity;BME280_pressure;Samples;Min_cycle;Max_cycle;Signal;HPM_P1;HPM_P2
2021/10/07 00:00:44;;;;;;;5.80;1.77;;;8.40;99.90;;;;;;5057050;28;20246;-66
2021/10/07 00:03:10;;;;;;;2.97;1.20;;;8.50;99.90;;;;;;5056572;28;20449;-65
2021/10/07 00:05:36;;;;;;;2.43;1.83;;;8.50;99.90;;;;;;5056251;28;20163;-66
2021/10/07 00:08:02;;;;;;;5.50;1.50;;;8.50;99.90;;;;;;5055727;28;20245;-66
2021/10/07 00:10:28;;;;;;;2.60;1.50;;;8.50;99.90;;;;;;5065399;28;20483;-65
2021/10/07 00:12:54;;;;;;;1.63;1.30;;;8.50;99.90;;;;;;5074371;28;20969;-67
2021/10/07 00:15:20;;;;;;;2.47;1.40;;;8.50;99.90;;;;;;5073805;28;20227;-66
2021/10/07 00:17:46;;;;;;;2.30;1.50;;;8.50;99.90;;;;;;5065693;28;20404;-67
2021/10/07 00:20:14;;;;;;;2.03;1.77;;;8.50;99.90;;;;;;5057262;28;20410;-66
2021/10/07 00:22:41;;;;;;;2.13;1.40;;;8.50;99.90;;;;;;5056688;28;20286;-67
2021/10/07 00:25:08;;;;;;;4.23;1.60;;;8.60;99.90;;;;;;5057143;28;20846;-66
2021/10/07 00:27:35;;;;;;;4.07;1.37;;;8.50;99.90;;;;;;5055298;28;20410;-67
2021/10/07 00:30:10;;;;;;;1.93;1.30;;;8.50;99.90;;;;;;5056681;28;20409;-67
2021/10/07 00:32:41;;;;;;;2.80;1.60;;;8.60;99.90;;;;;;5056675;28;20429;-68
2021/10/07 00:40:09;;;;;;;2.53;1.40;;;8.60;99.90;;;;;;5056854;28;20476;-67
2021/10/07 00:42:35;;;;;;;2.60;1.23;;;8.70;99.90;;;;;;5056970;28;20815;-66
2021/10/07 00:45:00;;;;;;;2.57;1.40;;;8.70;99.90;;;;;;5055307;28;20412;-66
2021/10/07 00:47:26;;;;;;;3.43;1.33;;;8.80;99.90;;;;;;5056549;28;20171;-67
2021/10/07 00:49:52;;;;;;;2.23;1.77;;;8.80;99.90;;;;;;5056334;28;20210;-66
2021/10/07 00:52:19;;;;;;;1.97;1.47;;;8.90;99.90;;;;;;5056544;28;20648;-66
2021/10/07 00:54:48;;;;;;;2.43;1.30;;;9.00;99.90;;;;;;5056028;28;20598;-66
2021/10/07 00:57:19;;;;;;;2.53;1.40;;;9.00;99.90;;;;;;5055929;28;20394;-66
2021/10/07 00:59:46;;;;;;;2.47;1.57;;;9.00;99.90;;;;;;5055654;28;20389;-66
2021/10/07 01:02:12;;;;;;;3.00;1.30;;;9.10;99.90;;;;;;5055925;28;20422;-67
2021/10/07 01:04:38;;;;;;;3.53;1.57;;;9.10;99.90;;;;;;5055877;28;20424;-66
2021/10/07 01:07:05;;;;;;;2.60;1.40;;;9.10;99.90;;;;;;5055164;28;20199;-66
2021/10/07 01:09:31;;;;;;;1.83;1.40;;;9.10;99.90;;;;;;5054210;28;20468;-66
2021/10/07 01:11:58;;;;;;;2.47;1.60;;;9.10;99.90;;;;;;5054854;28;20484;-66
2021/10/07 01:14:52;;;;;;;2.60;1.47;;;9.10;99.90;;;;;;5054553;28;20451;-66
2021/10/07 01:17:36;;;;;;;2.40;1.23;;;9.10;99.90;;;;;;5054938;28;20393;-66
2021/10/07 01:20:06;;;;;;;3.00;1.30;;;9.10;99.90;;;;;;5055836;28;20792;-66
2021/10/07 01:22:32;;;;;;;3.60;1.23;;;9.20;99.90;;;;;;5055754;28;20445;-66
2021/10/07 01:25:00;;;;;;;5.83;1.43;;;9.20;99.90;;;;;;5055420;28;20745;-66
2021/10/07 01:27:29;;;;;;;2.77;1.37;;;9.30;99.90;;;;;;5055370;28;20410;-66
2021/10/07 01:30:02;;;;;;;2.60;1.73;;;9.30;99.90;;;;;;5055633;28;20449;-66
2021/10/07 01:32:28;;;;;;;2.90;1.50;;;9.30;99.90;;;;;;5053015;28;20454;-68
2021/10/07 01:34:54;;;;;;;6.10;1.67;;;9.40;99.90;;;;;;5050565;28;20475;-66
2021/10/07 01:37:19;;;;;;;2.50;1.70;;;9.40;99.90;;;;;;5055254;28;20199;-66
2021/10/07 01:39:45;;;;;;;5.60;1.90;;;9.40;99.90;;;;;;5054822;28;20271;-66
2021/10/07 01:42:11;;;;;;;3.13;1.80;;;9.30;99.90;;;;;;5055029;28;20718;-66
2021/10/07 01:44:37;;;;;;;2.37;1.50;;;9.30;99.90;;;;;;5055065;28;20413;-65
2021/10/07 01:47:03;;;;;;;4.63;1.60;;;9.40;99.90;;;;;;5054810;28;20171;-65
2021/10/07 01:49:29;;;;;;;4.00;1.67;;;9.40;99.90;;;;;;5054406;28;20256;-65
2021/10/07 01:51:54;;;;;;;3.57;1.77;;;9.40;99.90;;;;;;5055166;28;20406;-65
2021/10/07 01:54:20;;;;;;;3.30;2.03;;;9.40;99.90;;;;;;5054847;28;20699;-66
2021/10/07 01:56:46;;;;;;;3.43;2.07;;;9.30;99.90;;;;;;5054249;28;20254;-67
2021/10/07 01:59:12;;;;;;;3.63;1.97;;;9.30;99.90;;;;;;5048111;28;20210;-65
2021/10/07 02:01:38;;;;;;;3.97;1.80;;;9.30;99.90;;;;;;5034508;28;20180;-66
2021/10/07 02:04:06;;;;;;;2.50;1.63;;;9.30;99.90;;;;;;5034432;28;20223;-66
2021/10/07 02:06:32;;;;;;;3.30;1.80;;;9.30;99.90;;;;;;5016924;28;20505;-66
2021/10/07 02:08:58;;;;;;;4.70;1.70;;;9.30;99.90;;;;;;5034373;28;20446;-67
2021/10/07 02:11:24;;;;;;;2.83;1.63;;;9.30;99.90;;;;;;5034451;28;20467;-66
2021/10/07 02:13:50;;;;;;;5.07;2.27;;;9.30;99.90;;;;;;5034327;28;20195;-66
2021/10/07 02:16:16;;;;;;;3.10;1.50;;;9.30;99.90;;;;;;5034680;28;20415;-66
2021/10/07 02:18:42;;;;;;;2.27;1.57;;;9.40;99.90;;;;;;5034585;28;20414;-66
2021/10/07 02:21:08;;;;;;;1.80;1.30;;;9.40;99.90;;;;;;5034404;28;20183;-66
2021/10/07 02:23:33;;;;;;;2.70;1.50;;;9.30;99.90;;;;;;5034338;28;20203;-66
2021/10/07 02:25:59;;;;;;;2.40;1.60;;;9.40;99.90;;;;;;5035113;28;20171;-67
2021/10/07 02:28:25;;;;;;;2.30;1.60;;;9.40;99.90;;;;;;5034865;28;20578;-66
2021/10/07 02:30:53;;;;;;;1.80;1.27;;;9.40;99.90;;;;;;5035036;28;20415;-67
2021/10/07 02:33:19;;;;;;;3.37;1.70;;;9.40;99.90;;;;;;5035208;28;20195;-67
2021/10/07 02:35:45;;;;;;;3.53;1.50;;;9.40;99.90;;;;;;5035135;28;20544;-66
2021/10/07 02:38:11;;;;;;;3.30;1.40;;;9.40;99.90;;;;;;5035009;28;20796;-67
2021/10/07 02:40:37;;;;;;;3.10;1.60;;;9.40;99.90;;;;;;5035088;28;20187;-67
2021/10/07 02:43:03;;;;;;;2.30;1.60;;;9.40;99.90;;;;;;5035584;28;20799;-66
2021/10/07 02:45:28;;;;;;;2.63;1.83;;;9.40;99.90;;;;;;5035679;28;20402;-67
2021/10/07 02:47:54;;;;;;;2.90;2.00;;;9.40;99.90;;;;;;5035226;28;20179;-67
2021/10/07 02:50:22;;;;;;;3.10;1.87;;;9.40;99.90;;;;;;5035440;28;20175;-67
2021/10/07 02:52:48;;;;;;;4.23;1.60;;;9.40;99.90;;;;;;5034844;28;20222;-67
2021/10/07 02:55:14;;;;;;;3.77;1.63;;;9.50;99.90;;;;;;5035323;28;20406;-67
2021/10/07 02:57:41;;;;;;;2.97;1.50;;;9.50;99.90;;;;;;5035197;28;20173;-67
2021/10/07 03:00:09;;;;;;;2.10;1.80;;;9.60;99.90;;;;;;5034619;28;20441;-66
2021/10/07 03:02:36;;;;;;;2.00;1.50;;;9.70;99.90;;;;;;5033769;28;20465;-67
2021/10/07 03:05:02;;;;;;;3.30;1.60;;;9.70;99.90;;;;;;5034223;28;20410;-66
2021/10/07 03:07:27;;;;;;;2.47;1.53;;;9.70;99.90;;;;;;5035087;28;20414;-66
2021/10/07 03:09:53;;;;;;;3.10;2.43;;;9.70;99.90;;;;;;5036194;28;20458;-67
2021/10/07 03:12:19;;;;;;;2.93;1.60;;;9.70;99.90;;;;;;5037441;28;20195;-67
2021/10/07 03:14:45;;;;;;;3.57;1.90;;;9.70;99.90;;;;;;5037634;28;20172;-67
2021/10/07 03:17:11;;;;;;;3.50;1.90;;;9.60;99.90;;;;;;5037883;28;20179;-66
2021/10/07 03:19:38;;;;;;;3.70;2.20;;;9.60;99.90;;;;;;5037821;28;20820;-66
2021/10/07 03:22:06;;;;;;;4.53;2.07;;;9.50;99.90;;;;;;5037688;28;20515;-67
2021/10/07 03:24:32;;;;;;;3.50;1.90;;;9.50;99.90;;;;;;5037994;28;20785;-67
2021/10/07 03:26:58;;;;;;;3.03;1.40;;;9.50;99.90;;;;;;5037525;28;20406;-67
2021/10/07 03:29:24;;;;;;;7.30;2.10;;;9.40;99.90;;;;;;5037480;28;20454;-66
2021/10/07 03:31:50;;;;;;;4.10;1.87;;;9.40;99.90;;;;;;5045256;28;20437;-66
2021/10/07 03:34:15;;;;;;;3.27;1.80;;;9.50;99.90;;;;;;5045799;28;20200;-65
2021/10/07 03:36:41;;;;;;;3.03;1.77;;;9.50;99.90;;;;;;5056739;28;20244;-66
2021/10/07 03:39:07;;;;;;;3.43;1.50;;;9.50;99.90;;;;;;5059544;28;20297;-66
2021/10/07 03:41:33;;;;;;;2.27;1.40;;;9.50;99.90;;;;;;5058572;28;20201;-66
2021/10/07 03:43:59;;;;;;;2.47;1.40;;;9.60;99.90;;;;;;5057521;28;20433;-66
2021/10/07 03:46:24;;;;;;;2.57;1.70;;;9.60;99.90;;;;;;5058106;28;20171;-66
2021/10/07 03:48:50;;;;;;;1.90;1.40;;;9.70;99.90;;;;;;5058190;28;20240;-66
2021/10/07 03:51:16;;;;;;;2.87;1.80;;;9.60;99.90;;;;;;5057907;28;20178;-66
2021/10/07 03:53:42;;;;;;;2.50;1.57;;;9.60;99.90;;;;;;5057455;28;20191;-66
2021/10/07 03:56:07;;;;;;;8.53;1.63;;;9.70;99.90;;;;;;5057662;28;20172;-66
2021/10/07 03:58:33;;;;;;;3.43;1.83;;;9.80;99.90;;;;;;5057383;28;20643;-66
2021/10/07 04:00:59;;;;;;;2.33;1.70;;;9.70;99.90;;;;;;5057828;28;20231;-66
2021/10/07 04:03:24;;;;;;;2.53;1.37;;;9.80;99.90;;;;;;5058059;28;20557;-66
2021/10/07 04:05:50;;;;;;;1.97;1.57;;;9.70;99.90;;;;;;5058143;28;20258;-66
2021/10/07 04:08:16;;;;;;;2.93;1.37;;;9.70;99.90;;;;;;5057606;28;20270;-66
2021/10/07 04:10:42;;;;;;;5.67;1.90;;;9.70;99.90;;;;;;5057938;28;20209;-66
2021/10/07 04:13:08;;;;;;;3.93;1.70;;;9.70;99.90;;;;;;5058161;28;20421;-66
2021/10/07 04:15:34;;;;;;;2.87;1.53;;;9.70;99.90;;;;;;5057507;28;20412;-66
2021/10/07 04:17:59;;;;;;;2.53;1.50;;;9.70;99.90;;;;;;5048337;28;20213;-66
2021/10/07 04:20:25;;;;;;;2.87;1.97;;;9.60;99.90;;;;;;5037572;28;20172;-66
2021/10/07 04:22:51;;;;;;;3.07;1.60;;;9.70;99.90;;;;;;5050961;28;20211;-66
2021/10/07 04:25:17;;;;;;;2.27;1.50;;;9.70;99.90;;;;;;5056267;28;20409;-65
2021/10/07 04:27:43;;;;;;;1.97;1.37;;;9.70;99.90;;;;;;5056276;28;20647;-66
2021/10/07 04:30:10;;;;;;;2.43;1.60;;;9.70;99.90;;;;;;5056448;28;20213;-65
2021/10/07 04:32:37;;;;;;;1.80;1.50;;;9.80;99.90;;;;;;5056657;28;20425;-66
2021/10/07 04:35:06;;;;;;;2.17;1.57;;;9.80;99.90;;;;;;5055755;28;20409;-65
2021/10/07 04:37:32;;;;;;;3.10;1.50;;;9.80;99.90;;;;;;5055881;28;20410;-66
2021/10/07 04:39:58;;;;;;;3.67;1.70;;;9.80;99.90;;;;;;5056658;28;20777;-66
2021/10/07 04:42:24;;;;;;;3.40;1.80;;;9.80;99.90;;;;;;5056536;28;20436;-66
2021/10/07 04:44:50;;;;;;;1.80;1.30;;;9.80;99.90;;;;;;5056523;28;20497;-66
2021/10/07 04:47:15;;;;;;;2.50;1.70;;;9.90;99.90;;;;;;5056539;28;20201;-66
2021/10/07 04:49:41;;;;;;;2.80;2.20;;;9.90;99.90;;;;;;5056712;28;20224;-66
2021/10/07 04:52:07;;;;;;;2.27;1.70;;;9.80;99.90;;;;;;5057004;28;20619;-67
2021/10/07 04:54:33;;;;;;;2.83;1.67;;;9.80;99.90;;;;;;5057046;28;20163;-67
2021/10/07 04:56:58;;;;;;;2.77;1.63;;;9.80;99.90;;;;;;5057372;28;20420;-67
2021/10/07 04:59:24;;;;;;;3.10;1.90;;;9.80;99.90;;;;;;5056340;28;20538;-66
2021/10/07 05:01:50;;;;;;;2.90;1.80;;;9.80;99.90;;;;;;5055659;28;20178;-66
2021/10/07 05:04:15;;;;;;;4.50;2.67;;;9.70;99.90;;;;;;5055617;28;20202;-66
2021/10/07 05:06:41;;;;;;;2.40;1.33;;;9.60;99.90;;;;;;5055933;28;20179;-67
2021/10/07 05:09:07;;;;;;;3.50;2.00;;;9.50;99.90;;;;;;5056020;28;20202;-66
2021/10/07 05:11:33;;;;;;;2.53;1.80;;;9.50;99.90;;;;;;5055553;28;20195;-66
2021/10/07 05:13:58;;;;;;;2.83;2.40;;;9.50;99.90;;;;;;5054363;28;20192;-66
2021/10/07 05:16:24;;;;;;;5.43;1.87;;;9.50;99.90;;;;;;5054423;28;20218;-66
2021/10/07 05:18:50;;;;;;;7.57;2.73;;;9.40;99.90;;;;;;5056276;28;20242;-66
2021/10/07 05:21:15;;;;;;;3.10;1.80;;;9.40;99.90;;;;;;5055881;28;20270;-66
2021/10/07 05:23:41;;;;;;;1.83;1.53;;;9.40;99.90;;;;;;5056988;28;20278;-66
2021/10/07 05:26:07;;;;;;;3.40;2.03;;;9.40;99.90;;;;;;5057114;28;20315;-66
2021/10/07 05:28:33;;;;;;;3.00;2.60;;;9.40;99.90;;;;;;5056768;28;20199;-67
2021/10/07 05:30:58;;;;;;;2.77;1.63;;;9.40;99.90;;;;;;5057137;28;20175;-66
2021/10/07 05:33:24;;;;;;;4.43;2.17;;;9.40;99.90;;;;;;5057311;28;20562;-66
2021/10/07 05:35:50;;;;;;;3.00;2.00;;;9.30;99.90;;;;;;5045793;28;20183;-66
2021/10/07 05:38:17;;;;;;;4.63;2.07;;;9.30;99.90;;;;;;5036434;28;20226;-66
2021/10/07 05:40:43;;;;;;;4.43;2.00;;;9.30;99.90;;;;;;5036988;28;20903;-67
2021/10/07 05:43:10;;;;;;;5.10;2.30;;;9.30;99.90;;;;;;5037389;28;20433;-67
2021/10/07 05:45:36;;;;;;;5.93;2.07;;;9.20;99.90;;;;;;5036573;28;20640;-67
2021/10/07 05:48:02;;;;;;;2.57;2.30;;;9.20;99.90;;;;;;5037371;28;20754;-67
2021/10/07 05:50:28;;;;;;;2.33;1.97;;;9.20;99.90;;;;;;5037225;28;20446;-66
2021/10/07 05:52:54;;;;;;;4.30;2.87;;;9.20;99.90;;;;;;5036399;28;20430;-67
2021/10/07 05:55:20;;;;;;;4.23;2.30;;;9.20;99.90;;;;;;5036513;28;20407;-66
2021/10/07 05:57:46;;;;;;;5.33;2.80;;;9.20;99.90;;;;;;5036634;28;20168;-66
2021/10/07 06:00:12;;;;;;;2.63;1.97;;;9.20;99.90;;;;;;5036107;28;20622;-66
2021/10/07 06:02:38;;;;;;;4.20;2.33;;;9.30;99.90;;;;;;5036218;28;20199;-66
2021/10/07 06:05:05;;;;;;;4.60;2.60;;;9.40;99.90;;;;;;5034656;28;21146;-66
2021/10/07 06:07:31;;;;;;;3.40;2.10;;;9.50;99.90;;;;;;5035009;28;20175;-64
2021/10/07 06:09:57;;;;;;;4.40;2.13;;;9.50;99.90;;;;;;5035251;28;20451;-66
2021/10/07 06:12:22;;;;;;;4.10;2.40;;;9.60;99.90;;;;;;5033879;28;20192;-66
2021/10/07 06:14:48;;;;;;;2.77;2.27;;;9.60;99.90;;;;;;5035019;28;20176;-66
2021/10/07 06:17:14;;;;;;;4.40;2.53;;;9.60;99.90;;;;;;5034778;28;20179;-66
2021/10/07 06:19:43;;;;;;;7.00;3.87;;;9.50;99.90;;;;;;5035235;28;20202;-67
2021/10/07 06:22:09;;;;;;;3.90;2.83;;;9.60;99.90;;;;;;5034967;28;20481;-67
2021/10/07 06:24:36;;;;;;;5.63;4.63;;;9.50;99.90;;;;;;5035639;28;20803;-67
2021/10/07 06:27:02;;;;;;;7.00;2.37;;;9.50;99.90;;;;;;5035665;28;20293;-66
2021/10/07 06:29:28;;;;;;;6.00;2.60;;;9.50;99.90;;;;;;5035305;28;20456;-66
2021/10/07 06:31:54;;;;;;;5.43;2.60;;;9.50;99.90;;;;;;5036115;28;20407;-67
2021/10/07 06:34:19;;;;;;;3.83;2.43;;;9.50;99.90;;;;;;5036461;28;20176;-66
2021/10/07 06:36:45;;;;;;;3.90;2.33;;;9.50;99.90;;;;;;5036614;28;20177;-66
2021/10/07 06:39:11;;;;;;;3.60;3.13;;;9.60;99.90;;;;;;5036799;28;20180;-67
2021/10/07 06:41:37;;;;;;;4.70;2.70;;;9.70;99.90;;;;;;5037657;28;20182;-67
2021/10/07 06:44:04;;;;;;;6.87;2.33;;;9.70;99.90;;;;;;5040173;28;20435;-67
2021/10/07 06:46:30;;;;;;;5.67;2.47;;;9.90;99.90;;;;;;5039790;28;20467;-66
2021/10/07 06:48:56;;;;;;;5.00;2.20;;;;;;;;;;5038936;28;20941;-66
2021/10/07 06:51:26;;;;;;;4.73;2.50;;;;;;;;;;5040517;28;20398;-67
2021/10/07 06:53:54;;;;;;;3.60;2.93;;;;;;;;;;5039971;28;20426;-66
2021/10/07 06:56:21;;;;;;;3.73;2.83;;;;;;;;;;5039752;28;20487;-66
2021/10/07 06:58:52;;;;;;;3.87;2.47;;;10.00;99.90;;;;;;5039791;28;20405;-66
2021/10/07 07:01:25;;;;;;;6.57;3.00;;;10.50;99.90;;;;;;5040153;28;20750;-67
2021/10/07 07:03:52;;;;;;;4.70;2.60;;;10.60;99.90;;;;;;5040322;28;20789;-66
2021/10/07 07:06:19;;;;;;;4.10;2.50;;;10.50;99.90;;;;;;5040218;28;20417;-66
2021/10/07 07:08:45;;;;;;;5.17;3.13;;;10.50;99.90;;;;;;5039541;28;20994;-66
2021/10/07 07:11:11;;;;;;;8.03;3.07;;;10.40;99.90;;;;;;5038952;28;20418;-66
2021/10/07 07:13:36;;;;;;;5.70;3.60;;;10.40;99.90;;;;;;5038772;28;20259;-66
2021/10/07 07:16:02;;;;;;;5.53;3.00;;;10.40;99.90;;;;;;5051452;28;20447;-65
2021/10/07 07:18:28;;;;;;;8.63;3.00;;;10.60;99.90;;;;;;5051271;28;20512;-65
2021/10/07 07:20:54;;;;;;;3.63;2.43;;;10.60;99.90;;;;;;5053799;28;20190;-66
2021/10/07 07:23:19;;;;;;;7.10;3.00;;;10.60;99.90;;;;;;5058377;28;20288;-66
2021/10/07 07:25:45;;;;;;;4.33;2.53;;;10.60;99.90;;;;;;5058893;28;20178;-65
2021/10/07 07:28:11;;;;;;;7.13;3.10;;;10.70;99.90;;;;;;5058089;28;20198;-65
2021/10/07 07:30:37;;;;;;;4.87;3.30;;;10.70;99.90;;;;;;5060590;28;20182;-66
2021/10/07 07:33:03;;;;;;;3.53;2.93;;;10.80;99.90;;;;;;5052568;28;20257;-65
2021/10/07 07:35:31;;;;;;;12.10;6.37;;;10.90;99.90;;;;;;5057943;28;20438;-66
2021/10/07 07:37:58;;;;;;;4.13;2.97;;;10.90;99.90;;;;;;5059699;28;20430;-66
2021/10/07 07:40:26;;;;;;;4.87;2.80;;;10.90;99.90;;;;;;5058082;28;20424;-66
2021/10/07 07:42:51;;;;;;;3.57;2.80;;;11.00;99.90;;;;;;5060109;28;20485;-67
2021/10/07 07:45:17;;;;;;;3.27;2.97;;;11.00;99.90;;;;;;5063183;28;20917;-66
2021/10/07 07:47:44;;;;;;;4.87;3.50;;;11.00;99.90;;;;;;5061835;28;20199;-66
2021/10/07 07:50:11;;;;;;;4.10;2.87;;;11.10;99.90;;;;;;5056899;28;20205;-66
2021/10/07 07:52:37;;;;;;;3.60;2.50;;;11.30;99.90;;;;;;5057721;28;20449;-67
2021/10/07 07:55:04;;;;;;;6.47;3.90;;;11.40;99.90;;;;;;5058192;28;20842;-65
2021/10/07 07:57:30;;;;;;;10.30;2.87;;;11.40;99.90;;;;;;5058657;28;20782;-66
2021/10/07 07:59:55;;;;;;;2.87;2.53;;;11.50;99.90;;;;;;5058286;28;20418;-66
2021/10/07 08:02:21;;;;;;;7.47;2.57;;;11.40;99.90;;;;;;5058658;28;20241;-66
2021/10/07 08:04:47;;;;;;;3.43;3.13;;;11.40;99.90;;;;;;5057569;28;20174;-67
2021/10/07 08:07:15;;;;;;;4.27;2.60;;;11.20;99.90;;;;;;5058633;28;20598;-66
2021/10/07 08:09:44;;;;;;;3.60;3.10;;;11.30;99.90;;;;;;5057246;28;20609;-66
2021/10/07 08:12:14;;;;;;;4.60;2.50;;;11.30;99.90;;;;;;5057025;28;20414;-67
2021/10/07 08:14:41;;;;;;;7.40;3.90;;;11.20;99.90;;;;;;5039298;28;20403;-67
2021/10/07 08:17:07;;;;;;;4.53;3.10;;;11.30;99.90;;;;;;5056195;28;20765;-66
2021/10/07 08:19:33;;;;;;;5.40;3.00;;;11.50;99.90;;;;;;5057854;28;20417;-66
2021/10/07 08:21:59;;;;;;;5.27;3.80;;;11.50;99.90;;;;;;5058280;28;20439;-67
2021/10/07 08:24:24;;;;;;;5.03;3.77;;;11.70;99.90;;;;;;5057976;28;20432;-66
2021/10/07 08:26:50;;;;;;;12.00;5.63;;;11.80;99.90;;;;;;5056046;28;20674;-67
2021/10/07 08:29:19;;;;;;;6.17;4.17;;;11.80;99.90;;;;;;5058083;28;20197;-66
2021/10/07 08:31:45;;;;;;;6.70;3.77;;;11.80;99.90;;;;;;5057597;28;20179;-66
2021/10/07 08:34:10;;;;;;;8.60;5.13;;;11.70;99.90;;;;;;5057801;28;20530;-66
2021/10/07 08:36:42;;;;;;;4.37;3.17;;;11.60;99.90;;;;;;5057767;28;20171;-67
2021/10/07 08:39:09;;;;;;;8.43;4.17;;;11.60;99.90;;;;;;5058919;28;20164;-65
2021/10/07 08:41:36;;;;;;;8.97;3.53;;;11.60;99.90;;;;;;5058412;28;20417;-67
2021/10/07 08:44:03;;;;;;;6.40;3.50;;;11.60;99.90;;;;;;5059236;28;20439;-65
2021/10/07 08:46:29;;;;;;;5.10;3.50;;;11.60;99.90;;;;;;5059873;28;20413;-66
2021/10/07 08:48:55;;;;;;;6.80;3.90;;;11.70;99.90;;;;;;5059028;28;20449;-65
2021/10/07 08:51:21;;;;;;;4.50;3.30;;;11.80;99.90;;;;;;5059033;28;20174;-66
2021/10/07 08:53:47;;;;;;;6.57;3.63;;;;;;;;;;5055680;28;21001;-66
2021/10/07 08:56:13;;;;;;;6.53;3.90;;;;;;;;;;5056323;28;20186;-66
2021/10/07 08:58:39;;;;;;;6.20;3.73;;;;;;;;;;5055544;28;20413;-65
2021/10/07 09:01:06;;;;;;;5.73;3.77;;;;;;;;;;5055680;28;20406;-67
2021/10/07 09:03:39;;;;;;;5.70;3.77;;;;;;;;;;5056320;28;20449;-65
2021/10/07 09:06:11;;;;;;;4.30;3.30;;;12.00;99.90;;;;;;5051781;28;20932;-64
2021/10/07 09:08:46;;;;;;;6.23;3.50;;;12.00;99.90;;;;;;5055049;28;20449;-65
2021/10/07 09:11:27;;;;;;;7.53;3.23;;;11.90;99.90;;;;;;5055336;28;20884;-67
2021/10/07 09:14:04;;;;;;;8.30;3.70;;;12.00;99.90;;;;;;5055036;28;20456;-66
2021/10/07 09:16:41;;;;;;;5.83;3.50;;;12.20;99.90;;;;;;5054946;28;20418;-67
2021/10/07 09:19:19;;;;;;;5.87;3.70;;;12.10;99.90;;;;;;5035509;28;20836;-67
2021/10/07 09:21:47;;;;;;;5.37;3.00;;;12.10;99.90;;;;;;5041334;28;20812;-67
2021/10/07 09:24:49;;;;;;;4.73;3.10;;;12.10;99.90;;;;;;5057144;28;20445;-66
2021/10/07 09:27:27;;;;;;;11.03;3.63;;;12.00;99.90;;;;;;5036415;28;20427;-66
2021/10/07 09:29:56;;;;;;;14.20;4.10;;;12.00;99.90;;;;;;5057042;28;20447;-67
2021/10/07 09:32:40;;;;;;;4.00;3.10;;;11.90;99.90;;;;;;5056236;28;21509;-67
2021/10/07 09:35:14;;;;;;;3.57;2.70;;;11.70;99.90;;;;;;5056079;28;20421;-67
2021/10/07 09:37:48;;;;;;;7.50;3.07;;;11.70;99.90;;;;;;5044307;28;20501;-67
2021/10/07 09:40:21;;;;;;;10.07;3.53;;;11.60;99.90;;;;;;5056778;28;20409;-66
2021/10/07 09:42:48;;;;;;;5.83;3.40;;;11.60;99.90;;;;;;5056336;28;20438;-67
2021/10/07 09:45:15;;;;;;;4.33;3.30;;;11.70;99.90;;;;;;5055972;28;20445;-66
2021/10/07 09:47:44;;;;;;;4.10;3.07;;;11.80;99.90;;;;;;5056797;28;20421;-65
2021/10/07 09:50:26;;;;;;;6.30;2.83;;;11.80;99.90;;;;;;5057940;28;20480;-66
2021/10/07 09:53:16;;;;;;;8.30;3.57;;;11.90;99.90;;;;;;5057152;28;20433;-67
2021/10/07 09:55:50;;;;;;;5.00;2.87;;;11.90;99.90;;;;;;5055366;28;20406;-68
2021/10/07 09:58:21;;;;;;;3.03;2.73;;;12.00;99.90;;;;;;5053591;28;20772;-67
2021/10/07 10:00:54;;;;;;;6.23;3.00;;;12.00;99.90;;;;;;5052999;28;20389;-68
2021/10/07 10:03:22;;;;;;;4.30;3.13;;;12.10;99.90;;;;;;5053318;28;20438;-67
2021/10/07 10:05:49;;;;;;;5.27;2.63;;;12.10;99.90;;;;;;5053276;28;20429;-66
2021/10/07 10:08:18;;;;;;;4.17;3.03;;;12.20;99.90;;;;;;5053160;28;20421;-67
2021/10/07 10:10:46;;;;;;;4.40;3.23;;;12.40;99.90;;;;;;5053488;28;20414;-67
2021/10/07 10:13:13;;;;;;;6.63;3.83;;;12.50;99.90;;;;;;5053537;28;20438;-67
2021/10/07 10:15:39;;;;;;;5.33;3.60;;;12.50;99.90;;;;;;5053828;28;20975;-67
2021/10/07 10:18:16;;;;;;;7.27;4.80;;;12.60;99.90;;;;;;5053934;28;20417;-66
2021/10/07 10:20:46;;;;;;;4.90;3.50;;;12.60;99.90;;;;;;5053974;28;20791;-66
2021/10/07 10:23:23;;;;;;;7.20;4.33;;;12.60;99.90;;;;;;5048804;28;20457;-65
2021/10/07 10:26:02;;;;;;;8.10;5.20;;;12.60;99.90;;;;;;5053007;28;20410;-66
2021/10/07 10:28:52;;;;;;;4.93;3.90;;;12.60;99.90;;;;;;5052200;28;21019;-66
2021/10/07 10:31:28;;;;;;;5.20;4.17;;;12.70;99.90;;;;;;5053000;28;20398;-66
2021/10/07 10:34:07;;;;;;;6.40;4.60;;;12.70;99.90;;;;;;5052657;28;20960;-66
2021/10/07 10:36:35;;;;;;;13.10;4.40;;;12.70;99.90;;;;;;5059155;22;20517;-66
2021/10/07 10:39:14;;;;;;;5.40;3.73;;;12.80;99.90;;;;;;5032348;28;20442;-66
2021/10/07 10:41:42;;;;;;;7.63;4.00;;;12.90;99.90;;;;;;5032802;28;20414;-67
2021/10/07 10:44:28;;;;;;;5.67;3.53;;;13.00;99.90;;;;;;5033323;28;20414;-66
2021/10/07 10:47:07;;;;;;;5.00;3.20;;;13.20;99.90;;;;;;5022872;28;20448;-68
2021/10/07 10:49:37;;;;;;;4.70;3.63;;;;;;;;;;5033466;28;20449;-67
2021/10/07 10:52:15;;;;;;;4.80;3.00;;;;;;;;;;5032127;28;20405;-66
2021/10/07 10:54:45;;;;;;;8.57;4.30;;;;;;;;;;5032314;28;20486;-66
2021/10/07 10:57:30;;;;;;;5.80;3.93;;;;;;;;;;5030773;28;20957;-66
2021/10/07 11:00:11;;;;;;;7.20;3.27;;;;;;;;;;5032998;28;20405;-66
2021/10/07 11:02:39;;;;;;;6.13;3.27;;;;;;;;;;5030933;28;20976;-66
2021/10/07 11:05:31;;;;;;;8.80;4.00;;;;;;;;;;5030772;28;20442;-66
2021/10/07 11:08:06;;;;;;;4.23;3.83;;;;;;;;;;5023087;28;21176;-65
2021/10/07 11:10:32;;;;;;;5.10;4.60;;;;;;;;;;5020320;28;20438;-66
2021/10/07 11:13:00;;;;;;;9.67;5.07;;;;;;;;;;5022824;28;20423;-66
2021/10/07 11:15:27;;;;;;;6.67;4.90;;;;;;;;;;5030809;28;20457;-66
2021/10/07 11:17:53;;;;;;;9.93;5.50;;;;;;;;;;5029094;28;20406;-70
2021/10/07 11:20:22;;;;;;;6.10;5.30;;;;;;;;;;5028791;28;20402;-72
2021/10/07 11:22:57;;;;;;;6.77;5.93;;;;;;;;;;5031131;28;20442;-70
2021/10/07 11:25:23;;;;;;;6.60;5.83;;;;;;;;;;5029663;28;20915;-68
2021/10/07 11:27:49;;;;;;;8.30;6.53;;;;;;;;;;5030882;28;20942;-68
2021/10/07 11:30:19;;;;;;;6.47;5.00;;;;;;;;;;5033340;28;20504;-67
2021/10/07 11:32:45;;;;;;;7.40;4.73;;;;;;;;;;5033185;28;20417;-67
2021/10/07 11:35:14;;;;;;;7.23;3.80;;;;;;;;;;5032604;28;20415;-67
2021/10/07 11:37:52;;;;;;;4.97;3.23;;;;;;;;;;5024765;28;20489;-68
2021/10/07 11:40:29;;;;;;;4.30;3.63;;;;;;;;;;5033870;28;20744;-69
2021/10/07 11:42:56;;;;;;;6.17;4.43;;;;;;;;;;5033105;28;20488;-68
2021/10/07 11:45:24;;;;;;;4.17;3.77;;;;;;;;;;5034507;28;20450;-68
2021/10/07 11:47:51;;;;;;;5.47;4.70;;;;;;;;;;5033907;28;20426;-67
2021/10/07 11:50:18;;;;;;;9.50;5.20;;;;;;;;;;5034310;28;20963;-67
2021/10/07 11:52:44;;;;;;;5.03;4.53;;;;;;;;;;5033547;28;20457;-67
2021/10/07 11:55:12;;;;;;;10.33;5.33;;;;;;;;;;5034198;28;20410;-67
2021/10/07 11:57:47;;;;;;;5.53;4.73;;;;;;;;;;5034183;28;20431;-67
2021/10/07 12:00:13;;;;;;;5.27;4.60;;;;;;;;;;5033091;28;20413;-67
2021/10/07 12:02:39;;;;;;;6.50;5.10;;;;;;;;;;5028739;28;20974;-69
2021/10/07 12:05:18;;;;;;;5.07;3.73;;;;;;;;;;5032831;28;20786;-66
2021/10/07 12:08:01;;;;;;;5.87;4.43;;;;;;;;;;5034008;28;20492;-67
2021/10/07 12:10:34;;;;;;;5.50;4.47;;;;;;;;;;5031135;28;20407;-68
2021/10/07 12:13:07;;;;;;;6.80;4.20;;;;;;;;;;5033790;28;20443;-70
2021/10/07 12:15:34;;;;;;;5.47;4.10;;;;;;;;;;5032546;28;20542;-65
2021/10/07 12:18:00;;;;;;;5.40;3.60;;;;;;;;;;5031810;28;20429;-65
2021/10/07 12:20:26;;;;;;;5.93;3.80;;;;;;;;;;5029638;28;20410;-67
2021/10/07 12:22:52;;;;;;;3.60;3.30;;;;;;;;;;5033034;28;20843;-66
2021/10/07 12:25:19;;;;;;;5.43;4.87;;;;;;;;;;5032958;28;20429;-66
2021/10/07 12:27:45;;;;;;;9.60;3.90;;;;;;;;;;5030715;28;20442;-67
2021/10/07 12:30:11;;;;;;;5.60;3.97;;;;;;;;;;5030902;28;20512;-67
2021/10/07 12:32:37;;;;;;;4.20;3.80;;;;;;;;;;5034134;28;20442;-66
2021/10/07 12:35:05;;;;;;;4.10;3.50;;;;;;;;;;5032974;28;20419;-66
2021/10/07 12:37:32;;;;;;;4.70;4.23;;;;;;;;;;5015808;28;21308;-66
2021/10/07 12:39:59;;;;;;;5.10;4.20;;;;;;;;;;5015156;28;20458;-66
2021/10/07 12:42:26;;;;;;;4.40;3.60;;;;;;;;;;5029287;28;20797;-66
2021/10/07 12:44:52;;;;;;;5.17;3.30;;;;;;;;;;5032245;28;20430;-68
2021/10/07 12:47:21;;;;;;;4.90;3.50;;;;;;;;;;5033431;28;20814;-67
2021/10/07 12:49:48;;;;;;;3.73;3.33;;;;;;;;;;5031269;28;20450;-66
2021/10/07 12:52:17;;;;;;;3.30;2.80;;;;;;;;;;5033676;28;21000;-66
2021/10/07 12:54:50;;;;;;;6.33;3.00;;;;;;;;;;5033610;28;20504;-67
2021/10/07 12:57:35;;;;;;;4.30;3.20;;;;;;;;;;5047464;28;20421;-67
2021/10/07 13:00:01;;;;;;;4.47;2.47;;;;;;;;;;5023157;28;20445;-67
2021/10/07 13:02:31;;;;;;;4.13;3.07;;;;;;;;;;5031161;28;20458;-67
2021/10/07 13:04:57;;;;;;;2.97;2.20;;;;;;;;;;5031930;28;20421;-67
2021/10/07 13:07:26;;;;;;;4.00;2.20;;;;;;;;;;5032216;28;20539;-67
2021/10/07 13:09:52;;;;;;;2.63;2.07;;;;;;;;;;5039712;28;20495;-67
2021/10/07 13:12:19;;;;;;;2.40;1.93;;;;;;;;;;5040098;28;20517;-67
2021/10/07 13:14:58;;;;;;;3.43;1.83;;;;;;;;;;5048343;28;20415;-67
2021/10/07 13:17:25;;;;;;;3.30;1.77;;;;;;;;;;5033507;28;20450;-67
2021/10/07 13:19:51;;;;;;;2.40;1.90;;;;;;;;;;5041084;28;20419;-67
2021/10/07 13:22:17;;;;;;;3.10;1.80;;;;;;;;;;5035776;28;20419;-67
2021/10/07 13:24:43;;;;;;;5.47;1.77;;;;;;;;;;5034926;28;20509;-67